Urb San Fernando, Puerto Rico
Current Conditions -  °F | °C
As of 10:56 AM on Tuesday 21 Oct 2014 (Local Time) from TJSJ Reporting Station
Scattered Clouds Scattered Clouds  
Wind Chill: 88°   Ceiling: Unl
Heat Index: 98°   Visibility: 10mi
Dew Point: 75°   Wind: 12mph
Humidity: 65%   Direction: 40°NE
Pressure: 29.97"   Gusts: NA
Location:  18.1783°N, 66.1111°W
Report Text: TJSJ 211456Z 04010KT 10SM SCT032 31/24 A2997 RMK AO2 SLP149 T03110239 50002
Loading
Personal Weather Stations






























Interactive Weather Map
Tropical Storm Tracking
New forecast layout! Learn more

10-Day Weather Forecast

Advertisements
Track Severe Weather on mobile